Time;durP1;ratioP1;P1;durP2;ratioP2;P2;SDS_P1;SDS_P2;PMS_P1;PMS_P2;Temp;Humidity;BMP_temperature;BMP_pressure;BME280_temperature;BME280_humidity;BME280_pressure;Samples;Min_cycle;Max_cycle;Signal;HPM_P1;HPM_P2
2023/07/20 00:00:05;;;;;;;;;12.75;12.75;;;;;31.02;31.69;100799.78;5136717;27;45334;-78
2023/07/20 00:02:31;;;;;;;;;6.25;6.25;;;;;30.88;31.92;100804.22;5113319;27;45534;-75
2023/07/20 00:04:56;;;;;;;;;4.00;4.00;;;;;30.73;31.92;100794.22;5101511;27;54057;-75
2023/07/20 00:07:21;;;;;;;;;5.25;5.25;;;;;30.79;32.10;100803.50;5102201;27;45510;-77
2023/07/20 00:09:47;;;;;;;;;8.00;8.00;;;;;30.75;32.03;100783.19;5105441;27;45532;-74
2023/07/20 00:12:13;;;;;;;;;7.25;7.25;;;;;30.97;31.64;100805.81;5105115;27;45748;-78
2023/07/20 00:14:39;;;;;;;;;9.25;9.25;;;;;30.95;31.69;100809.72;5104998;27;45927;-82
2023/07/20 00:17:04;;;;;;;;;7.25;7.25;;;;;30.93;31.82;100809.06;5103207;27;45480;-79
2023/07/20 00:19:31;;;;;;;;;5.00;5.00;;;;;30.93;31.69;100806.38;5110438;27;45394;-78
2023/07/20 00:21:57;;;;;;;;;6.50;6.50;;;;;30.87;31.71;100808.81;5106717;27;45534;-80
2023/07/20 00:24:23;;;;;;;;;6.00;6.00;;;;;30.81;31.87;100801.44;5112684;27;46344;-74
2023/07/20 00:26:48;;;;;;;;;5.00;5.00;;;;;30.88;32.06;100821.34;5107824;27;45263;-78
2023/07/20 00:29:15;;;;;;;;;5.25;5.25;;;;;30.88;31.88;100809.66;5115845;27;45393;-78
2023/07/20 00:31:43;;;;;;;;;7.00;7.00;;;;;30.84;32.12;100803.75;5105018;27;45404;-81
2023/07/20 00:34:08;;;;;;;;;4.00;4.00;;;;;30.67;32.24;100805.00;5114991;27;47109;-77
2023/07/20 00:36:34;;;;;;;;;6.50;6.50;;;;;30.50;32.40;100783.47;5116431;27;47927;-81
2023/07/20 00:38:59;;;;;;;;;6.25;6.25;;;;;30.59;32.16;100812.22;5109255;27;45368;-83
2023/07/20 00:41:29;;;;;;;;;6.00;6.00;;;;;30.58;32.14;100812.38;5115375;27;45431;-80
2023/07/20 00:43:56;;;;;;;;;5.00;5.00;;;;;30.59;32.61;100804.09;5111121;27;45289;-81
2023/07/20 00:46:24;;;;;;;;;6.75;6.75;;;;;30.54;32.87;100805.63;5121985;27;45287;-78
2023/07/20 00:48:50;;;;;;;;;7.00;7.00;;;;;30.50;32.38;100807.91;5104434;27;45334;-81
2023/07/20 00:51:15;;;;;;;;;7.00;7.00;;;;;30.46;32.53;100812.84;5106027;27;45411;-82
2023/07/20 00:53:41;;;;;;;;;6.25;6.25;;;;;30.47;32.57;100802.84;5104376;27;45978;-77
2023/07/20 00:56:08;;;;;;;;;5.25;5.25;;;;;30.42;32.87;100797.97;5101393;27;45647;-78
2023/07/20 00:58:34;;;;;;;;;6.50;6.50;;;;;30.36;33.02;100798.72;5100840;27;45284;-74
2023/07/20 01:01:00;;;;;;;;;5.00;5.00;;;;;30.26;32.71;100781.88;5100886;27;45426;-75
2023/07/20 01:03:25;;;;;;;;;6.00;6.00;;;;;30.31;33.11;100788.47;5100208;27;46618;-79
2023/07/20 01:06:00;;;;;;;;;5.50;5.50;;;;;30.44;32.77;100801.34;5105055;27;45446;-75
2023/07/20 01:08:36;;;;;;;;;6.00;6.00;;;;;30.33;32.86;100795.56;5108585;27;45498;-74
2023/07/20 01:11:31;;;;;;;;;3.75;3.75;;;;;30.17;33.07;100778.41;5111724;27;45497;-76
2023/07/20 01:13:57;;;;;;;;;4.00;4.00;;;;;30.25;33.20;100793.78;5111270;27;46243;-75
2023/07/20 01:16:22;;;;;;;;;6.00;6.00;;;;;30.12;33.21;100788.97;5112072;27;45266;-78
2023/07/20 01:18:48;;;;;;;;;6.00;6.00;;;;;30.23;33.38;100796.69;5101409;27;45373;-79
2023/07/20 01:21:22;;;;;;;;;6.25;6.25;;;;;30.36;33.37;100801.44;5107084;27;45679;-76
2023/07/20 01:24:10;;;;;;;;;4.00;4.00;;;;;30.31;33.16;100780.31;5107042;27;45574;-76
2023/07/20 01:27:06;;;;;;;;;5.75;5.75;;;;;30.52;33.31;100795.00;5119067;27;45255;-74
2023/07/20 01:29:43;;;;;;;;;5.75;5.75;;;;;30.50;33.15;100791.63;5088598;27;44871;-77
2023/07/20 01:32:10;;;;;;;;;6.00;6.00;;;;;30.51;32.88;100790.59;5101866;27;45350;-81
2023/07/20 01:34:36;;;;;;;;;6.00;6.00;;;;;30.43;33.20;100782.56;5113822;27;45991;-79
2023/07/20 01:37:03;;;;;;;;;5.00;5.00;;;;;30.42;32.92;100792.53;5111910;27;45482;-78
2023/07/20 01:39:29;;;;;;;;;5.50;5.50;;;;;30.31;33.19;100784.88;5102985;27;45271;-81
2023/07/20 01:41:55;;;;;;;;;5.00;5.00;;;;;30.30;33.13;100780.47;5118696;27;45605;-80
2023/07/20 01:44:21;;;;;;;;;5.00;5.00;;;;;30.17;33.51;100746.72;5106615;27;46083;-76
2023/07/20 01:46:46;;;;;;;;;7.00;6.25;;;;;30.39;33.17;100778.53;5105793;27;45378;-70
2023/07/20 01:49:12;;;;;;;;;5.00;5.00;;;;;30.23;33.46;100763.28;5079074;27;45370;-72
2023/07/20 01:51:37;;;;;;;;;6.50;6.50;;;;;30.27;33.53;100786.28;5078593;27;45660;-67
2023/07/20 01:54:03;;;;;;;;;4.00;4.00;;;;;30.19;33.50;100773.66;5078426;27;46286;-73
2023/07/20 01:56:28;;;;;;;;;5.50;5.50;;;;;30.13;33.87;100768.97;5077651;27;45344;-67
2023/07/20 01:58:54;;;;;;;;;7.50;7.50;;;;;30.01;34.22;100768.59;5078397;27;45330;-66
2023/07/20 02:01:19;;;;;;;;;5.50;5.50;;;;;30.05;33.78;100772.63;5078320;27;45313;-70
2023/07/20 02:03:45;;;;;;;;;5.25;5.25;;;;;30.12;33.74;100770.00;5078408;28;45312;-69
2023/07/20 02:06:10;;;;;;;;;5.50;5.50;;;;;30.17;33.64;100763.00;5078804;27;45328;-70
2023/07/20 02:08:35;;;;;;;;;4.50;4.50;;;;;30.22;33.41;100764.31;5078095;27;45308;-66
2023/07/20 02:11:01;;;;;;;;;5.00;5.00;;;;;30.22;33.26;100756.16;5077676;27;45346;-73
2023/07/20 02:13:26;;;;;;;;;5.00;5.00;;;;;30.25;33.75;100763.94;5076975;27;45467;-63
2023/07/20 02:15:51;;;;;;;;;5.50;5.50;;;;;30.14;33.54;100755.22;5076455;27;64286;-64
2023/07/20 02:18:17;;;;;;;;;3.50;3.50;;;;;30.20;33.86;100755.50;5078075;28;45367;-73
2023/07/20 02:20:42;;;;;;;;;5.50;5.50;;;;;30.22;33.45;100756.16;5094559;27;45478;-70
2023/07/20 02:23:08;;;;;;;;;6.00;6.00;;;;;30.09;33.80;100752.25;5081411;28;45581;-73
2023/07/20 02:25:33;;;;;;;;;6.00;6.00;;;;;30.17;33.47;100754.00;5078379;28;45297;-73
2023/07/20 02:27:59;;;;;;;;;5.75;5.75;;;;;30.17;33.51;100756.72;5077394;27;45370;-72
2023/07/20 02:30:24;;;;;;;;;5.00;5.00;;;;;30.09;33.69;100757.66;5076034;28;45357;-74
2023/07/20 02:32:50;;;;;;;;;5.00;5.00;;;;;29.84;33.62;100744.34;5077667;27;45259;-67
2023/07/20 02:35:16;;;;;;;;;7.25;7.25;;;;;29.85;33.64;100761.44;5092932;27;45322;-70
2023/07/20 02:37:41;;;;;;;;;4.75;4.75;;;;;29.80;33.90;100753.88;5077694;27;45370;-67
2023/07/20 02:40:07;;;;;;;;;5.50;5.50;;;;;29.79;33.83;100757.63;5077508;28;45234;-68
2023/07/20 02:42:33;;;;;;;;;7.00;7.00;;;;;29.83;33.90;100766.22;5077810;27;46146;-66
2023/07/20 02:44:58;;;;;;;;;3.25;3.25;;;;;29.87;34.10;100764.81;5100028;27;45796;-74
2023/07/20 02:47:24;;;;;;;;;5.00;5.00;;;;;29.87;33.79;100775.66;5100257;27;45230;-70
2023/07/20 02:49:49;;;;;;;;;5.25;5.25;;;;;29.82;34.35;100764.53;5096748;27;45239;-70
2023/07/20 02:52:15;;;;;;;;;5.00;5.00;;;;;29.83;33.77;100755.34;5096510;27;46188;-69
2023/07/20 02:54:40;;;;;;;;;6.75;6.75;;;;;29.92;34.32;100772.41;5096515;27;45398;-74
2023/07/20 02:57:05;;;;;;;;;5.00;5.00;;;;;29.86;33.83;100763.97;5097903;27;45401;-73
2023/07/20 02:59:31;;;;;;;;;5.00;5.00;;;;;29.66;34.09;100760.94;5099214;27;45773;-73
2023/07/20 03:01:57;;;;;;;;;5.00;5.00;;;;;29.55;34.43;100754.09;5098265;27;45873;-72
2023/07/20 03:04:23;;;;;;;;;5.75;5.75;;;;;29.66;34.29;100769.06;5097702;27;45396;-70
2023/07/20 03:06:48;;;;;;;;;6.25;6.25;;;;;29.68;34.58;100764.31;5098236;27;45458;-73
2023/07/20 03:09:15;;;;;;;;;6.25;6.25;;;;;29.63;34.04;100752.31;5100922;27;45283;-70
2023/07/20 03:11:40;;;;;;;;;5.00;5.00;;;;;29.76;34.29;100765.25;5098378;27;46155;-67
2023/07/20 03:14:06;;;;;;;;;6.25;6.25;;;;;29.75;33.85;100761.72;5097200;27;45679;-74
2023/07/20 03:16:32;;;;;;;;;5.25;5.25;;;;;29.77;33.96;100759.66;5097763;27;45313;-71
2023/07/20 03:18:59;;;;;;;;;5.25;5.25;;;;;29.81;34.02;100752.00;5097968;27;45508;-74
2023/07/20 03:21:25;;;;;;;;;4.25;4.25;;;;;29.83;33.80;100758.94;5096934;27;46027;-68
2023/07/20 03:23:50;;;;;;;;;4.50;4.50;;;;;29.86;33.95;100761.28;5096720;27;45374;-65
2023/07/20 03:26:16;;;;;;;;;5.00;5.00;;;;;29.87;34.01;100762.09;5096704;27;45374;-70
2023/07/20 03:28:41;;;;;;;;;6.50;6.00;;;;;29.87;34.16;100767.53;5097267;27;45293;-73
2023/07/20 03:31:06;;;;;;;;;1.00;1.00;;;;;29.80;34.01;100755.72;5097445;27;45438;-72
2023/07/20 03:33:32;;;;;;;;;5.00;5.00;;;;;29.84;34.67;100762.47;5099263;27;45448;-68
2023/07/20 03:35:58;;;;;;;;;5.25;5.25;;;;;29.94;34.41;100764.94;5097075;27;45412;-72
2023/07/20 03:38:24;;;;;;;;;5.00;5.00;;;;;29.98;34.39;100764.34;5097491;27;45554;-73
2023/07/20 03:40:54;;;;;;;;;5.25;5.25;;;;;29.97;34.31;100764.56;5099047;27;45470;-71
2023/07/20 03:43:21;;;;;;;;;6.00;6.00;;;;;30.00;34.09;100769.63;5100271;27;45262;-69
2023/07/20 03:45:47;;;;;;;;;5.00;5.00;;;;;29.95;34.29;100770.16;5100484;27;45357;-71
2023/07/20 03:48:16;;;;;;;;;5.00;5.00;;;;;29.92;34.42;100756.97;5101442;27;45580;-72
2023/07/20 03:50:45;;;;;;;;;4.25;4.25;;;;;30.03;34.77;100767.38;5100831;27;47318;-72
2023/07/20 03:53:10;;;;;;;;;5.50;5.50;;;;;30.09;34.10;100768.50;5100835;27;45319;-74
2023/07/20 03:55:36;;;;;;;;;6.00;6.00;;;;;30.12;34.05;100767.28;5104191;27;45335;-68
2023/07/20 03:58:01;;;;;;;;;5.00;5.00;;;;;30.05;34.26;100756.34;5100296;27;45236;-70
2023/07/20 04:00:27;;;;;;;;;4.75;4.75;;;;;30.13;34.05;100758.13;5101366;27;45495;-71
2023/07/20 04:02:52;;;;;;;;;4.50;4.50;;;;;30.04;34.34;100760.09;5101898;27;45262;-67
2023/07/20 04:05:18;;;;;;;;;5.00;5.00;;;;;30.01;34.28;100760.47;5102229;27;45326;-68
2023/07/20 04:07:43;;;;;;;;;4.00;4.00;;;;;29.95;34.31;100744.91;5103531;27;45257;-68
2023/07/20 04:10:09;;;;;;;;;5.75;5.75;;;;;29.99;34.80;100762.50;5100984;27;45381;-73
2023/07/20 04:12:35;;;;;;;;;5.00;5.00;;;;;30.02;34.58;100754.03;5100536;27;45380;-69
2023/07/20 04:15:01;;;;;;;;;6.50;6.50;;;;;30.10;34.18;100753.94;5101348;27;45870;-74
2023/07/20 04:17:26;;;;;;;;;5.25;5.25;;;;;30.16;34.41;100761.31;5118559;27;45607;-67
2023/07/20 04:19:51;;;;;;;;;4.25;4.25;;;;;30.21;34.11;100759.91;5100885;27;46354;-68
2023/07/20 04:22:17;;;;;;;;;4.50;4.50;;;;;30.16;34.18;100755.88;5099542;27;45312;-67
2023/07/20 04:24:42;;;;;;;;;6.00;6.00;;;;;30.09;34.14;100756.81;5099611;27;45339;-71
2023/07/20 04:27:08;;;;;;;;;4.25;4.25;;;;;29.94;34.73;100754.91;5115063;27;45558;-66
2023/07/20 04:29:33;;;;;;;;;6.25;6.25;;;;;29.88;34.71;100750.22;5099067;27;46381;-69
2023/07/20 04:31:59;;;;;;;;;4.75;4.75;;;;;29.93;34.53;100757.81;5115410;27;45880;-71
2023/07/20 04:34:24;;;;;;;;;6.00;6.00;;;;;29.93;34.60;100757.81;5099607;27;45316;-69
2023/07/20 04:36:49;;;;;;;;;6.00;5.00;;;;;29.97;35.04;100748.28;5100587;27;45164;-72
2023/07/20 04:39:15;;;;;;;;;6.00;6.00;;;;;30.11;34.57;100754.75;5100671;27;60374;-70
2023/07/20 04:41:40;;;;;;;;;6.25;6.25;;;;;30.08;34.41;100753.28;5100835;27;45328;-66
2023/07/20 04:44:05;;;;;;;;;5.50;5.50;;;;;30.20;34.56;100748.19;5100107;27;45234;-70
2023/07/20 04:46:31;;;;;;;;;6.00;6.00;;;;;30.27;34.17;100743.75;5100543;27;45334;-69
2023/07/20 04:48:56;;;;;;;;;6.00;6.00;;;;;30.45;34.39;100751.47;5099292;27;58689;-75
2023/07/20 04:51:22;;;;;;;;;3.00;3.00;;;;;30.50;34.35;100745.47;5099502;27;45415;-70
2023/07/20 04:53:47;;;;;;;;;5.25;5.25;;;;;30.55;34.00;100745.75;5101182;27;45357;-75
2023/07/20 04:56:13;;;;;;;;;6.00;6.00;;;;;30.64;34.20;100743.78;5102763;27;45381;-74
2023/07/20 04:58:38;;;;;;;;;6.00;6.00;;;;;30.43;34.21;100734.53;5101013;27;46901;-76
2023/07/20 05:01:04;;;;;;;;;11.25;11.25;;;;;30.46;34.32;100750.44;5102143;27;45844;-77
2023/07/20 05:03:29;;;;;;;;;12.00;12.00;;;;;30.51;34.56;100762.59;5103409;27;45444;-76
2023/07/20 05:05:55;;;;;;;;;8.25;8.25;;;;;30.39;34.41;100760.38;5100479;27;45463;-78
2023/07/20 05:08:22;;;;;;;;;8.25;8.00;;;;;30.38;34.68;100755.97;5100577;27;46169;-74
2023/07/20 05:10:47;;;;;;;;;8.75;8.75;;;;;30.41;34.76;100757.47;5100892;27;45254;-74
2023/07/20 05:13:15;;;;;;;;;8.50;8.50;;;;;30.51;34.70;100757.16;5100076;27;45459;-78
2023/07/20 05:15:40;;;;;;;;;6.25;6.25;;;;;30.62;34.35;100759.41;5100502;27;45342;-77
2023/07/20 05:18:06;;;;;;;;;7.00;7.00;;;;;30.75;34.42;100759.59;5100321;27;46660;-79
2023/07/20 05:20:33;;;;;;;;;2.00;2.00;;;;;30.71;34.50;100731.13;5101576;27;44832;-82
2023/07/20 05:23:01;;;;;;;;;6.50;6.50;;;;;30.86;34.27;100763.69;5102428;27;45310;-77
2023/07/20 05:25:26;;;;;;;;;8.00;6.25;;;;;31.06;34.04;100767.66;5104203;27;45318;-78
2023/07/20 05:27:52;;;;;;;;;6.00;6.00;;;;;31.08;33.82;100762.88;5102927;27;46299;-77
2023/07/20 05:30:18;;;;;;;;;6.00;6.00;;;;;30.95;33.89;100730.97;5102181;27;45277;-77
2023/07/20 05:32:46;;;;;;;;;5.00;5.00;;;;;31.24;33.84;100770.78;5116351;27;45348;-75
2023/07/20 05:35:11;;;;;;;;;4.75;4.75;;;;;31.93;33.58;100764.91;5116178;27;45516;-75
2023/07/20 05:37:38;;;;;;;;;7.75;7.00;;;;;31.19;34.27;100773.25;5099625;27;45501;-77
2023/07/20 05:40:04;;;;;;;;;6.00;6.00;;;;;31.24;33.43;100762.63;5115846;27;45409;-76
2023/07/20 05:42:29;;;;;;;;;5.25;5.25;;;;;31.12;33.50;100756.84;5098674;27;45474;-76
2023/07/20 05:44:55;;;;;;;;;5.75;5.75;;;;;31.41;33.42;100776.81;5097749;27;47139;-75
2023/07/20 05:47:20;;;;;;;;;5.25;5.25;;;;;31.53;33.55;100758.09;5099648;27;46306;-75
2023/07/20 05:49:46;;;;;;;;;6.00;6.00;;;;;31.72;33.43;100772.03;5101806;27;59422;-78
2023/07/20 05:52:11;;;;;;;;;4.75;4.75;;;;;31.78;32.91;100765.81;5099513;27;45823;-78
2023/07/20 05:54:36;;;;;;;;;6.50;6.50;;;;;31.77;32.84;100770.44;5098912;27;44943;-76
2023/07/20 05:57:02;;;;;;;;;6.00;6.00;;;;;31.73;33.04;100763.69;5098776;27;45473;-76
2023/07/20 05:59:29;;;;;;;;;6.25;6.25;;;;;31.65;33.12;100750.25;5098786;27;45332;-79
2023/07/20 06:01:54;;;;;;;;;6.75;6.75;;;;;31.82;33.19;100758.13;5098696;27;45328;-80
2023/07/20 06:04:20;;;;;;;;;6.00;6.00;;;;;31.81;33.25;100754.59;5098260;27;45235;-81
2023/07/20 06:06:46;;;;;;;;;5.25;5.25;;;;;31.73;32.40;100751.94;5097624;27;46025;-80
2023/07/20 06:09:12;;;;;;;;;5.50;5.50;;;;;31.76;32.44;100757.03;5114130;27;45442;-80
2023/07/20 06:11:38;;;;;;;;;5.25;5.25;;;;;31.51;32.74;100734.88;5113890;27;45294;-78
2023/07/20 06:14:04;;;;;;;;;7.50;7.50;;;;;31.53;33.00;100762.69;5099055;27;45474;-71
2023/07/20 06:16:30;;;;;;;;;5.00;5.00;;;;;31.34;33.15;100751.47;5101727;27;45476;-78
2023/07/20 06:18:55;;;;;;;;;5.75;5.75;;;;;31.30;33.18;100759.16;5098966;27;45255;-76
2023/07/20 06:21:21;;;;;;;;;5.00;5.00;;;;;31.19;33.32;100767.81;5096164;27;45467;-77
2023/07/20 06:23:46;;;;;;;;;7.00;7.00;;;;;30.92;33.20;100718.63;5096516;27;45389;-76
2023/07/20 06:26:12;;;;;;;;;4.25;4.25;;;;;31.18;33.34;100761.53;5097581;27;46224;-78
2023/07/20 06:28:37;;;;;;;;;4.25;4.25;;;;;31.07;33.16;100764.72;5095503;27;45542;-78
2023/07/20 06:31:03;;;;;;;;;6.25;6.25;;;;;30.80;33.76;100756.31;5097766;27;45378;-75
2023/07/20 06:33:29;;;;;;;;;5.75;5.75;;;;;30.77;34.02;100767.53;5109375;27;45534;-76
2023/07/20 06:35:54;;;;;;;;;6.75;6.75;;;;;30.73;33.83;100756.22;5099465;27;46093;-75
2023/07/20 06:38:20;;;;;;;;;6.25;6.00;;;;;30.89;34.04;100765.19;5088576;27;45218;-74
2023/07/20 06:40:51;;;;;;;;;5.25;5.25;;;;;30.95;33.81;100761.69;5095179;27;45426;-77
2023/07/20 06:43:17;;;;;;;;;3.50;3.50;;;;;30.97;33.58;100756.91;5091320;27;46054;-74
2023/07/20 06:45:42;;;;;;;;;6.25;6.25;;;;;30.94;33.90;100764.59;5091541;27;45968;-76
2023/07/20 06:48:08;;;;;;;;;5.25;5.25;;;;;30.96;33.80;100766.09;5087679;27;45378;-73
2023/07/20 06:50:33;;;;;;;;;6.00;6.00;;;;;30.99;33.83;100757.56;5109745;27;45310;-73
2023/07/20 06:53:00;;;;;;;;;7.00;7.00;;;;;30.98;33.81;100755.03;5095170;27;45560;-73
2023/07/20 06:55:26;;;;;;;;;6.50;6.50;;;;;30.99;33.53;100768.44;5086519;27;46044;-77
2023/07/20 06:57:51;;;;;;;;;6.00;6.00;;;;;31.03;33.78;100764.28;5102056;27;45497;-78
2023/07/20 07:00:17;;;;;;;;;8.50;8.50;;;;;31.14;33.37;100760.19;5100654;27;45570;-80
2023/07/20 07:02:43;;;;;;;;;5.50;5.50;;;;;31.39;33.06;100764.44;5111325;27;45351;-78
2023/07/20 07:05:08;;;;;;;;;7.25;7.25;;;;;31.48;32.95;100771.41;5098329;27;45472;-75
2023/07/20 07:07:34;;;;;;;;;7.00;7.00;;;;;31.40;32.98;100739.81;5103129;27;45400;-76
2023/07/20 07:10:00;;;;;;;;;8.00;8.00;;;;;31.49;32.96;100754.06;5094844;27;45498;-78
2023/07/20 07:12:25;;;;;;;;;7.00;7.00;;;;;31.43;32.63;100754.84;5098608;27;45405;-79
2023/07/20 07:14:51;;;;;;;;;5.75;5.75;;;;;31.43;32.85;100741.28;5102903;27;47173;-77
2023/07/20 07:17:16;;;;;;;;;7.00;5.75;;;;;31.48;32.95;100749.69;5090442;27;45357;-74
2023/07/20 07:19:42;;;;;;;;;7.25;7.25;;;;;31.53;32.93;100736.34;5103991;27;46856;-78
2023/07/20 07:22:07;;;;;;;;;7.00;7.00;;;;;31.75;32.60;100741.75;5081824;27;45276;-86
2023/07/20 07:24:36;;;;;;;;;6.25;6.25;;;;;31.95;32.38;100755.50;5081934;27;46142;-71
2023/07/20 07:27:01;;;;;;;;;8.25;8.25;;;;;32.30;32.28;100746.47;5093047;27;45520;-70
2023/07/20 07:29:27;;;;;;;;;7.75;7.75;;;;;32.44;31.78;100741.97;5097283;27;45587;-70
2023/07/20 07:31:52;;;;;;;;;6.25;6.25;;;;;32.44;31.46;100750.97;5111681;27;45642;-70
2023/07/20 07:34:17;;;;;;;;;7.00;7.00;;;;;32.41;32.10;100751.38;5116950;27;47512;-70
2023/07/20 07:36:43;;;;;;;;;10.00;9.25;;;;;32.65;31.20;100751.88;5116865;27;45474;-69
2023/07/20 07:39:09;;;;;;;;;7.50;7.50;;;;;32.71;31.35;100747.53;5117147;27;45684;-70
2023/07/20 07:41:35;;;;;;;;;8.00;8.00;;;;;32.80;30.72;100751.72;5116749;27;45530;-70
2023/07/20 07:44:00;;;;;;;;;7.75;7.75;;;;;33.96;29.47;100753.56;5118126;27;46209;-69
2023/07/20 07:46:25;;;;;;;;;6.25;6.25;;;;;34.20;29.27;100750.13;5119028;27;45456;-70
2023/07/20 07:48:51;;;;;;;;;7.00;7.00;;;;;34.38;29.09;100752.13;5119457;27;45320;-70
2023/07/20 07:51:16;;;;;;;;;5.00;5.00;;;;;34.48;28.79;100761.81;5119664;27;45680;-69
2023/07/20 07:53:43;;;;;;;;;6.25;6.25;;;;;34.53;28.68;100756.56;5119302;27;45325;-69
2023/07/20 07:56:09;;;;;;;;;7.00;7.00;;;;;34.58;29.01;100744.97;5119782;27;45304;-70
2023/07/20 07:58:34;;;;;;;;;7.25;7.25;;;;;34.84;28.54;100745.84;5119519;27;45981;-72
2023/07/20 08:01:00;;;;;;;;;8.75;8.75;;;;;34.85;28.14;100748.38;5119407;27;45201;-68
2023/07/20 08:03:26;;;;;;;;;8.50;8.50;;;;;34.83;28.21;100753.22;5118775;27;46226;-69
2023/07/20 08:05:55;;;;;;;;;7.25;6.75;;;;;34.80;27.85;100751.75;5118138;27;45848;-70
2023/07/20 08:08:20;;;;;;;;;5.75;5.75;;;;;34.85;28.12;100747.53;5118991;27;45335;-70
2023/07/20 08:10:45;;;;;;;;;6.50;6.50;;;;;34.96;27.72;100752.28;5119004;27;45552;-70
2023/07/20 08:13:11;;;;;;;;;9.00;9.00;;;;;35.06;27.80;100751.84;5117042;27;45749;-70
2023/07/20 08:15:37;;;;;;;;;9.50;9.50;;;;;35.24;27.76;100754.66;5118539;27;45460;-70
2023/07/20 08:18:02;;;;;;;;;10.00;10.00;;;;;35.53;27.10;100732.38;5120897;27;45387;-70
2023/07/20 08:20:27;;;;;;;;;9.00;9.00;;;;;35.90;26.70;100748.00;5119511;27;45146;-69
2023/07/20 08:22:54;;;;;;;;;9.25;9.25;;;;;35.78;27.06;100734.22;5118523;27;45175;-71
2023/07/20 08:25:20;;;;;;;;;8.00;8.00;;;;;35.85;26.79;100740.47;5118799;27;45229;-69
2023/07/20 08:27:47;;;;;;;;;6.00;6.00;;;;;35.87;26.57;100738.34;5118464;27;45802;-70
2023/07/20 08:30:12;;;;;;;;;7.50;7.50;;;;;35.79;26.16;100738.63;5118960;27;45578;-69
2023/07/20 08:32:38;;;;;;;;;4.50;4.50;;;;;35.94;26.45;100733.63;5118429;27;46573;-71
2023/07/20 08:35:03;;;;;;;;;4.00;4.00;;;;;36.22;25.73;100734.19;5118452;27;45345;-69
2023/07/20 08:37:29;;;;;;;;;4.50;4.50;;;;;35.63;26.59;100734.59;5118980;27;45330;-70
2023/07/20 08:39:54;;;;;;;;;5.00;5.00;;;;;36.24;25.65;100735.66;5118763;27;45427;-69
2023/07/20 08:42:22;;;;;;;;;4.75;4.75;;;;;36.38;25.57;100732.75;5118397;27;45460;-70
2023/07/20 08:44:49;;;;;;;;;7.00;7.00;;;;;36.28;25.40;100724.25;5118876;27;45292;-70
2023/07/20 08:47:16;;;;;;;;;5.50;5.50;;;;;36.15;25.08;100726.09;5119663;27;45309;-71
2023/07/20 08:49:42;;;;;;;;;5.75;5.75;;;;;36.03;25.49;100716.94;5120311;27;45382;-69
2023/07/20 08:52:08;;;;;;;;;7.00;7.00;;;;;36.20;25.60;100730.84;5120468;27;47228;-72
2023/07/20 08:54:35;;;;;;;;;6.75;6.50;;;;;36.29;25.46;100714.97;5118284;27;45395;-71
2023/07/20 08:57:05;;;;;;;;;14.75;14.75;;;;;36.54;25.68;100717.59;5118268;27;45436;-70
2023/07/20 08:59:31;;;;;;;;;6.50;6.50;;;;;36.86;25.45;100716.50;5117200;27;45206;-69
2023/07/20 09:01:59;;;;;;;;;6.50;6.50;;;;;37.13;25.00;100715.06;5117762;27;45491;-70
2023/07/20 09:04:24;;;;;;;;;8.25;8.25;;;;;36.17;25.96;100725.84;5118334;27;45274;-69
2023/07/20 09:06:50;;;;;;;;;7.25;7.25;;;;;35.92;26.34;100721.25;5118607;27;45362;-70
2023/07/20 09:09:16;;;;;;;;;6.00;6.00;;;;;36.06;26.02;100717.31;5118686;27;45539;-70
2023/07/20 09:11:41;;;;;;;;;6.50;5.50;;;;;36.20;26.18;100725.38;5118197;27;45541;-69
2023/07/20 09:14:09;;;;;;;;;5.50;5.50;;;;;36.20;25.50;100726.22;5118173;27;45304;-72
2023/07/20 09:16:55;;;;;;;;;4.75;4.75;;;;;35.90;25.02;100721.47;5118084;27;45518;-69
2023/07/20 09:19:22;;;;;;;;;5.75;5.75;;;;;35.63;25.16;100719.00;5118217;27;45504;-70
2023/07/20 09:21:49;;;;;;;;;5.25;5.25;;;;;36.69;23.95;100722.66;5117465;27;45948;-70
2023/07/20 09:24:17;;;;;;;;;2.25;2.25;;;;;36.75;23.50;100726.38;5117672;27;45356;-69
2023/07/20 09:26:44;;;;;;;;;2.00;2.00;;;;;36.82;22.63;100716.97;5118271;27;45265;-70
2023/07/20 09:29:10;;;;;;;;;1.75;1.75;;;;;37.11;22.52;100716.38;5118186;27;45448;-69
2023/07/20 09:31:35;;;;;;;;;5.25;5.25;;;;;37.62;21.97;100721.41;5118075;27;46227;-69
2023/07/20 09:34:01;;;;;;;;;3.00;3.00;;;;;38.31;21.73;100719.91;5117453;27;54072;-70
2023/07/20 09:36:27;;;;;;;;;2.00;2.00;;;;;38.81;21.26;100718.41;5118361;27;45383;-70
2023/07/20 09:38:53;;;;;;;;;2.00;2.00;;;;;39.13;20.14;100706.88;5117441;27;45451;-70
2023/07/20 09:41:19;;;;;;;;;2.25;2.25;;;;;39.42;20.36;100710.38;5133061;27;46028;-70
2023/07/20 09:43:45;;;;;;;;;4.00;4.00;;;;;39.82;20.68;100703.00;5117555;27;45426;-70
2023/07/20 09:46:11;;;;;;;;;6.75;6.00;;;;;40.29;19.87;100706.31;5117380;27;45484;-69
2023/07/20 09:48:36;;;;;;;;;4.00;4.00;;;;;40.76;19.84;100699.38;5117987;27;45409;-71
2023/07/20 09:51:03;;;;;;;;;3.25;3.25;;;;;40.96;19.06;100708.91;5117713;27;46036;-71
2023/07/20 09:53:28;;;;;;;;;3.00;3.00;;;;;40.59;19.69;100703.06;5117000;27;45298;-70
2023/07/20 09:55:54;;;;;;;;;2.00;2.00;;;;;40.41;19.69;100703.44;5117472;27;45372;-70
2023/07/20 09:58:20;;;;;;;;;3.50;3.50;;;;;40.22;19.95;100689.94;5116024;27;45384;-70
2023/07/20 10:00:50;;;;;;;;;5.00;5.00;;;;;39.62;20.42;100692.50;5117523;27;45335;-70
2023/07/20 10:03:20;;;;;;;;;3.25;3.25;;;;;39.69;19.86;100706.91;5115622;27;45684;-70
2023/07/20 10:05:56;;;;;;;;;5.75;5.75;;;;;39.92;20.04;100699.50;5117477;27;45246;-69
2023/07/20 10:08:25;;;;;;;;;7.25;7.25;;;;;40.11;19.29;100705.53;5117052;27;45348;-70
2023/07/20 10:10:50;;;;;;;;;2.75;2.75;;;;;40.16;19.03;100690.97;5116562;27;45710;-71
2023/07/20 10:13:26;;;;;;;;;6.00;6.00;;;;;40.01;19.23;100677.88;5116928;27;45294;-70
2023/07/20 10:15:57;;;;;;;;;2.00;2.00;;;;;40.23;18.84;100688.84;5115038;27;45379;-70
2023/07/20 10:18:29;;;;;;;;;3.00;3.00;;;;;40.29;19.34;100682.34;5116921;27;45324;-71
2023/07/20 10:20:56;;;;;;;;;4.75;4.75;;;;;40.22;19.18;100689.94;5117260;27;46068;-70
2023/07/20 10:23:23;;;;;;;;;3.25;3.25;;;;;40.12;19.14;100676.91;5118470;27;45379;-71
2023/07/20 10:25:49;;;;;;;;;6.00;6.00;;;;;40.05;19.10;100680.94;5118574;27;45298;-70
2023/07/20 10:28:15;;;;;;;;;2.50;2.50;;;;;39.73;19.41;100677.78;5117844;27;45361;-69
2023/07/20 10:30:42;;;;;;;;;14.00;14.00;;;;;39.63;19.31;100672.13;5116662;27;46402;-70
2023/07/20 10:33:09;;;;;;;;;3.75;3.75;;;;;39.71;18.68;100673.59;5117470;27;45251;-69
2023/07/20 10:35:55;;;;;;;;;1.50;1.50;;;;;39.79;19.14;100656.69;5133592;27;45222;-71
2023/07/20 10:38:46;;;;;;;;;4.00;4.00;;;;;40.01;18.45;100664.94;5117494;27;45272;-70
2023/07/20 10:41:29;;;;;;;;;2.00;2.00;;;;;40.12;18.17;100654.03;5116748;27;47113;-71
2023/07/20 10:44:06;;;;;;;;;3.00;3.00;;;;;40.08;18.84;100650.13;5117000;27;45404;-69
2023/07/20 10:46:43;;;;;;;;;4.00;4.00;;;;;40.11;18.58;100660.63;5116780;27;45278;-72
2023/07/20 10:49:10;;;;;;;;;5.50;5.50;;;;;39.73;18.52;100650.25;5117276;27;45311;-70
2023/07/20 10:51:47;;;;;;;;;1.75;1.75;;;;;39.65;18.35;100655.34;5119606;27;45371;-70
2023/07/20 10:54:15;;;;;;;;;2.25;2.25;;;;;39.38;18.75;100659.69;5120014;27;45526;-71
2023/07/20 10:56:41;;;;;;;;;2.75;2.75;;;;;39.16;19.00;100656.84;5120860;27;45351;-70
2023/07/20 10:59:22;;;;;;;;;4.25;3.50;;;;;39.18;18.73;100654.69;5121404;27;45486;-71
2023/07/20 11:01:51;;;;;;;;;4.00;4.00;;;;;39.13;18.65;100646.34;5120767;27;46362;-70
2023/07/20 11:04:18;;;;;;;;;5.25;5.25;;;;;39.29;19.30;100648.25;5120688;27;45458;-71
2023/07/20 11:06:45;;;;;;;;;2.00;2.00;;;;;39.34;19.20;100652.16;5120590;27;45267;-69
2023/07/20 11:09:21;;;;;;;;;4.25;4.25;;;;;39.26;19.33;100656.19;5120461;27;45559;-69
2023/07/20 11:11:47;;;;;;;;;4.00;4.00;;;;;39.14;19.42;100645.28;5119627;27;45256;-69
2023/07/20 11:14:23;;;;;;;;;3.50;3.50;;;;;39.11;19.24;100643.84;5119780;27;45457;-69
2023/07/20 11:16:51;;;;;;;;;4.25;4.25;;;;;39.24;19.57;100644.59;5120042;27;45338;-70
2023/07/20 11:19:23;;;;;;;;;3.75;3.75;;;;;39.51;19.12;100652.16;5118745;27;45329;-70
2023/07/20 11:21:58;;;;;;;;;3.00;3.00;;;;;39.78;18.85;100641.25;5119191;27;45550;-70